Time;durP1;ratioP1;P1;durP2;ratioP2;P2;SDS_P1;SDS_P2;PMS_P1;PMS_P2;Temp;Humidity;BMP_temperature;BMP_pressure;BME280_temperature;BME280_humidity;BME280_pressure;Samples;Min_cycle;Max_cycle;Signal;HPM_P1;HPM_P2
2021/11/15 00:01:53;;;;;;;37.53;17.87;;;;;;;;;;5031365;28;20270;-73
2021/11/15 00:04:21;;;;;;;35.83;17.30;;;;;;;;;;5014706;28;20219;-72
2021/11/15 00:06:49;;;;;;;33.80;16.87;;;;;;;;;;5031656;28;20216;-72
2021/11/15 00:09:14;;;;;;;30.73;14.73;;;;;;;;;;5031689;28;20212;-73
2021/11/15 00:11:40;;;;;;;31.60;13.90;;;;;;;;;;5016490;28;20233;-72
2021/11/15 00:14:08;;;;;;;28.90;14.13;;;;;;;;;;5014185;28;20716;-73
2021/11/15 00:16:34;;;;;;;32.17;14.70;;;;;;;;;;5031895;28;20223;-74
2021/11/15 00:18:59;;;;;;;30.20;15.70;;;;;;;;;;4998345;28;20315;-73
2021/11/15 00:21:30;;;;;;;35.90;16.73;;;;;;;;;;5030472;28;20223;-72
2021/11/15 00:24:02;;;;;;;41.07;18.00;;;;;;;;;;5015435;28;20228;-73
2021/11/15 00:26:31;;;;;;;34.20;17.80;;;;;;;;;;5015812;28;20251;-73
2021/11/15 00:28:57;;;;;;;42.27;19.60;;;;;;;;;;5032135;28;20243;-73
2021/11/15 00:31:27;;;;;;;37.73;18.97;;;;;;;;;;5014362;28;20667;-73
2021/11/15 00:33:53;;;;;;;48.23;21.67;;;;;;;;;;5038938;28;20308;-72
2021/11/15 00:36:19;;;;;;;43.70;21.83;;;;;;;;;;5044855;28;20232;-71
2021/11/15 00:38:44;;;;;;;48.37;25.70;;;;;;;;;;5005669;28;20228;-71
2021/11/15 00:41:10;;;;;;;50.20;25.27;;;;;;;;;;5036074;28;20251;-74
2021/11/15 00:43:36;;;;;;;51.90;25.70;;;;;;;;;;5014729;28;20752;-71
2021/11/15 00:46:04;;;;;;;55.40;26.07;;;;;;;;;;5014106;28;20239;-72
2021/11/15 00:48:32;;;;;;;57.17;26.67;;;;;;;;;;5030594;28;20220;-73
2021/11/15 00:50:57;;;;;;;53.00;26.47;;;;;;;;;;5030312;28;20767;-72
2021/11/15 00:53:27;;;;;;;61.67;26.77;;;;;;;;;;5029762;28;20224;-73
2021/11/15 00:55:56;;;;;;;54.20;27.03;;;;;;;;;;5007433;28;20236;-72
2021/11/15 00:58:24;;;;;;;60.63;28.97;;;;;;;;;;5029466;28;20260;-72
2021/11/15 01:00:52;;;;;;;57.43;28.00;;;;;;;;;;4993728;28;20694;-71
2021/11/15 01:03:24;;;;;;;58.93;27.77;;;;;;;;;;5022981;28;20248;-72
2021/11/15 01:05:50;;;;;;;60.93;29.73;;;;;;;;;;4985414;28;20742;-73
2021/11/15 01:08:18;;;;;;;59.73;28.87;;;;;;;;;;4993555;28;20256;-72
2021/11/15 01:10:50;;;;;;;58.93;29.03;;;;;;;;;;5003479;28;20216;-72
2021/11/15 01:13:18;;;;;;;53.13;27.57;;;;;;;;;;5028836;28;20723;-73
2021/11/15 01:15:46;;;;;;;59.73;29.50;;;;;;;;;;4997291;28;20212;-73
2021/11/15 01:18:14;;;;;;;58.57;29.07;;;;;;;;;;5029153;28;20232;-73
2021/11/15 01:20:42;;;;;;;56.80;28.33;;;;;;;;;;5029756;28;20220;-72
2021/11/15 01:23:08;;;;;;;58.23;29.70;;;;;;;;;;5029110;28;20224;-73
2021/11/15 01:25:36;;;;;;;61.67;29.57;;;;;;;;;;5029435;28;20757;-72
2021/11/15 01:28:02;;;;;;;59.80;29.10;;;;;;;;;;4981216;28;20224;-73
2021/11/15 01:30:27;;;;;;;56.63;29.90;;;;;;;;;;5046117;28;20649;-73
2021/11/15 01:32:55;;;;;;;58.13;28.47;;;;;;;;;;4996239;28;20722;-72
2021/11/15 01:35:21;;;;;;;55.63;29.00;;;;;;;;;;4996783;28;20232;-72
2021/11/15 01:37:49;;;;;;;61.30;29.17;;;;;;;;;;5013461;28;20285;-73
2021/11/15 01:40:20;;;;;;;55.83;29.67;;;;;;;;;;5046008;28;20238;-73
2021/11/15 01:42:46;;;;;;;58.53;29.07;;;;;;;;;;5026867;28;20220;-72
2021/11/15 01:45:12;;;;;;;64.80;29.30;;;;;;;;;;5011533;28;20725;-72
2021/11/15 01:47:40;;;;;;;61.17;30.33;;;;;;;;;;4996446;28;20315;-72
2021/11/15 01:50:07;;;;;;;59.70;29.80;;;;;;;;;;5011982;28;20219;-73
2021/11/15 01:52:35;;;;;;;60.73;30.03;;;;;;;;;;5029172;28;20219;-71
2021/11/15 01:55:03;;;;;;;62.47;29.03;;;;;;;;;;5012565;28;20741;-73
2021/11/15 01:57:29;;;;;;;62.73;29.77;;;;;;;;;;5012866;28;20604;-72
2021/11/15 01:59:56;;;;;;;61.07;29.50;;;;;;;;;;5012691;28;20208;-73
2021/11/15 02:02:26;;;;;;;58.40;29.37;;;;;;;;;;5006623;28;20228;-72
2021/11/15 02:04:57;;;;;;;61.90;30.17;;;;;;;;;;4992991;28;20224;-75
2021/11/15 02:07:24;;;;;;;58.53;30.27;;;;;;;;;;5004564;28;20631;-72
2021/11/15 02:09:52;;;;;;;63.10;30.00;;;;;;;;;;5013010;28;20226;-73
2021/11/15 02:12:20;;;;;;;64.30;30.43;;;;;;;;;;5012155;28;20224;-73
2021/11/15 02:14:48;;;;;;;58.90;30.00;;;;;;;;;;4995416;28;20220;-72
2021/11/15 02:17:13;;;;;;;65.53;31.17;;;;;;;;;;5021953;28;20223;-73
2021/11/15 02:19:40;;;;;;;60.03;29.63;;;;;;;;;;5012735;28;20690;-73
2021/11/15 02:22:09;;;;;;;61.23;30.63;;;;;;;;;;5028340;28;20282;-73
2021/11/15 02:24:37;;;;;;;61.03;30.97;;;;;;;;;;4997271;28;20239;-72
2021/11/15 02:27:03;;;;;;;58.67;29.60;;;;;;;;;;5019850;28;20220;-73
2021/11/15 02:29:29;;;;;;;60.77;29.33;;;;;;;;;;5012074;28;20235;-73
2021/11/15 02:31:54;;;;;;;62.13;30.50;;;;;;;;;;5009160;28;20225;-73
2021/11/15 02:34:20;;;;;;;61.40;30.43;;;;;;;;;;4992280;28;20232;-73
2021/11/15 02:36:50;;;;;;;62.17;31.07;;;;;;;;;;4996029;28;20312;-73
2021/11/15 02:39:19;;;;;;;59.43;29.43;;;;;;;;;;5012138;28;20267;-74
2021/11/15 02:41:51;;;;;;;59.23;29.93;;;;;;;;;;5007214;28;20220;-73
2021/11/15 02:44:19;;;;;;;62.37;30.33;;;;;;;;;;5028148;28;20259;-73
2021/11/15 02:46:47;;;;;;;60.10;28.33;;;;;;;;;;5028634;28;20212;-72
2021/11/15 02:49:15;;;;;;;57.10;29.27;;;;;;;;;;5012108;28;20222;-73
2021/11/15 02:51:40;;;;;;;57.20;29.60;;;;;;;;;;5049544;28;20231;-72
2021/11/15 02:54:06;;;;;;;58.00;29.27;;;;;;;;;;5031871;28;20228;-72
2021/11/15 02:56:35;;;;;;;54.70;28.97;;;;;;;;;;5032358;28;20248;-73
2021/11/15 02:59:03;;;;;;;60.80;30.67;;;;;;;;;;5016415;28;20240;-74
2021/11/15 03:01:30;;;;;;;58.33;30.00;;;;;;;;;;5015617;28;20312;-73
2021/11/15 03:03:55;;;;;;;57.70;30.30;;;;;;;;;;5015979;28;20219;-74
2021/11/15 03:06:21;;;;;;;62.40;29.53;;;;;;;;;;4997797;28;20228;-72
2021/11/15 03:08:46;;;;;;;59.23;30.03;;;;;;;;;;5031693;28;20224;-73
2021/11/15 03:11:16;;;;;;;59.50;30.50;;;;;;;;;;4996757;28;20216;-74
2021/11/15 03:13:47;;;;;;;55.87;29.67;;;;;;;;;;5026946;28;20231;-73
2021/11/15 03:16:13;;;;;;;59.50;31.33;;;;;;;;;;4995171;28;20234;-72
2021/11/15 03:18:47;;;;;;;56.47;29.90;;;;;;;;;;4999697;28;20224;-73
2021/11/15 03:21:22;;;;;;;55.80;30.27;;;;;;;;;;5031587;28;20224;-73
2021/11/15 03:23:58;;;;;;;54.43;29.97;;;;;;;;;;5016960;28;20269;-73
2021/11/15 03:26:26;;;;;;;54.47;30.27;;;;;;;;;;5031419;28;20220;-73
2021/11/15 03:28:54;;;;;;;58.73;31.33;;;;;;;;;;5015580;28;20226;-72
2021/11/15 03:31:29;;;;;;;54.67;31.90;;;;;;;;;;5015004;28;20274;-73
2021/11/15 03:33:58;;;;;;;55.60;29.83;;;;;;;;;;5025219;28;20251;-73
2021/11/15 03:36:24;;;;;;;56.07;30.33;;;;;;;;;;4998100;28;20641;-72
2021/11/15 03:38:50;;;;;;;52.87;30.30;;;;;;;;;;5011093;28;20228;-72
2021/11/15 03:41:19;;;;;;;56.07;30.13;;;;;;;;;;4996665;28;20390;-72
2021/11/15 03:43:44;;;;;;;52.57;30.23;;;;;;;;;;5012586;28;20232;-72
2021/11/15 03:46:13;;;;;;;52.10;29.83;;;;;;;;;;5014210;28;20220;-72
2021/11/15 03:48:38;;;;;;;54.03;29.20;;;;;;;;;;5015023;28;20277;-72
2021/11/15 03:51:10;;;;;;;49.17;28.63;;;;;;;;;;5030885;28;20641;-72
2021/11/15 03:53:36;;;;;;;48.47;28.10;;;;;;;;;;5015066;28;20238;-71
2021/11/15 03:56:07;;;;;;;49.87;29.07;;;;;;;;;;4998171;28;20215;-73
2021/11/15 03:58:33;;;;;;;52.57;30.33;;;;;;;;;;5025966;28;20232;-73
2021/11/15 04:01:02;;;;;;;53.87;30.53;;;;;;;;;;5036353;28;20246;-72
2021/11/15 04:03:32;;;;;;;52.20;30.50;;;;;;;;;;5019542;28;20231;-72
2021/11/15 04:06:11;;;;;;;51.93;30.23;;;;;;;;;;5034536;28;20668;-72
2021/11/15 04:08:39;;;;;;;56.27;30.17;;;;;;;;;;5032126;28;20243;-72
2021/11/15 04:11:08;;;;;;;57.73;31.30;;;;;;;;;;5010977;28;20240;-72
2021/11/15 04:13:36;;;;;;;55.23;29.23;;;;;;;;;;5013947;28;20246;-72
2021/11/15 04:16:09;;;;;;;55.00;30.23;;;;;;;;;;5031306;28;20216;-74
2021/11/15 04:18:37;;;;;;;55.10;29.87;;;;;;;;;;4999075;28;20232;-71
2021/11/15 04:21:03;;;;;;;48.50;28.53;;;;;;;;;;4981747;28;20701;-73
2021/11/15 04:23:28;;;;;;;59.67;29.57;;;;;;;;;;5032318;28;20250;-72
2021/11/15 04:25:54;;;;;;;56.37;30.63;;;;;;;;;;4981280;28;20282;-73
2021/11/15 04:28:22;;;;;;;56.17;30.03;;;;;;;;;;5014076;28;20220;-73
2021/11/15 04:30:50;;;;;;;61.53;30.43;;;;;;;;;;5030744;28;20221;-72
2021/11/15 04:33:15;;;;;;;59.70;30.40;;;;;;;;;;5013455;28;20235;-72
2021/11/15 04:35:45;;;;;;;60.80;31.13;;;;;;;;;;4997706;28;20681;-72
2021/11/15 04:38:15;;;;;;;59.27;31.03;;;;;;;;;;5014928;28;20228;-72
2021/11/15 04:40:44;;;;;;;54.70;30.73;;;;;;;;;;5014279;28;20235;-73
2021/11/15 04:43:12;;;;;;;58.50;31.03;;;;;;;;;;5013345;28;20756;-73
2021/11/15 04:45:44;;;;;;;56.33;31.37;;;;;;;;;;5031530;28;20232;-72
2021/11/15 04:48:09;;;;;;;59.77;30.33;;;;;;;;;;5013437;28;20305;-72
2021/11/15 04:50:35;;;;;;;57.13;30.23;;;;;;;;;;5031480;28;20290;-73
2021/11/15 04:53:03;;;;;;;55.00;29.70;;;;;;;;;;5013493;28;20314;-73
2021/11/15 04:55:34;;;;;;;57.83;30.83;;;;;;;;;;4997421;28;20358;-71
2021/11/15 04:58:00;;;;;;;58.73;30.87;;;;;;;;;;4998285;28;20251;-72
2021/11/15 05:00:30;;;;;;;58.90;30.90;;;;;;;;;;5012624;28;20694;-71
2021/11/15 05:02:55;;;;;;;52.77;29.37;;;;;;;;;;4998282;28;20232;-74
2021/11/15 05:05:21;;;;;;;60.60;32.40;;;;;;;;;;5012632;28;20231;-72
2021/11/15 05:07:53;;;;;;;59.53;30.83;;;;;;;;;;4996396;28;20296;-72
2021/11/15 05:10:18;;;;;;;54.70;30.13;;;;;;;;;;5029462;28;20232;-73
2021/11/15 05:12:44;;;;;;;55.43;31.27;;;;;;;;;;5012982;28;20235;-73
2021/11/15 05:15:11;;;;;;;58.80;29.90;;;;;;;;;;5029021;28;20231;-72
2021/11/15 05:17:37;;;;;;;58.33;31.30;;;;;;;;;;5014012;28;20243;-73
2021/11/15 05:20:05;;;;;;;57.17;30.90;;;;;;;;;;5012817;28;20250;-72
2021/11/15 05:22:35;;;;;;;58.40;31.07;;;;;;;;;;5011903;28;20590;-72
2021/11/15 05:25:01;;;;;;;57.90;31.37;;;;;;;;;;5012811;28;20920;-71
2021/11/15 05:27:26;;;;;;;56.47;31.07;;;;;;;;;;5012973;28;20219;-71
2021/11/15 05:29:55;;;;;;;60.00;30.73;;;;;;;;;;5030924;28;20640;-72
2021/11/15 05:32:23;;;;;;;52.20;29.87;;;;;;;;;;5013583;28;20231;-71
2021/11/15 05:34:51;;;;;;;61.10;31.40;;;;;;;;;;5011658;28;20303;-72
2021/11/15 05:37:17;;;;;;;57.13;31.40;;;;;;;;;;5012763;28;20266;-71
2021/11/15 05:39:45;;;;;;;64.57;30.87;;;;;;;;;;5013480;28;20219;-72
2021/11/15 05:42:16;;;;;;;59.97;32.63;;;;;;;;;;5025211;28;20217;-72
2021/11/15 05:44:42;;;;;;;57.83;31.27;;;;;;;;;;5025566;28;20270;-75
2021/11/15 05:47:10;;;;;;;61.17;31.93;;;;;;;;;;5029388;28;20228;-73
2021/11/15 05:49:39;;;;;;;65.77;34.13;;;;;;;;;;4994584;28;20303;-73
2021/11/15 05:52:07;;;;;;;59.83;31.87;;;;;;;;;;4977456;28;20224;-71
2021/11/15 05:54:39;;;;;;;63.33;31.50;;;;;;;;;;5021158;28;20216;-74
2021/11/15 05:57:05;;;;;;;58.00;32.03;;;;;;;;;;5009671;28;20229;-72
2021/11/15 05:59:33;;;;;;;67.60;31.53;;;;;;;;;;5009816;28;22221;-72
2021/11/15 06:01:59;;;;;;;58.03;31.73;;;;;;;;;;5025966;28;20227;-73
2021/11/15 06:04:24;;;;;;;62.03;31.93;;;;;;;;;;5010674;28;20224;-72
2021/11/15 06:06:51;;;;;;;57.23;31.03;;;;;;;;;;4996772;28;20246;-71
2021/11/15 06:09:17;;;;;;;57.80;29.90;;;;;;;;;;4996565;28;20231;-71
2021/11/15 06:11:43;;;;;;;56.30;29.93;;;;;;;;;;5029170;28;20231;-73
2021/11/15 06:14:08;;;;;;;57.83;31.43;;;;;;;;;;5029551;28;20641;-71
2021/11/15 06:16:38;;;;;;;54.00;30.47;;;;;;;;;;5012270;28;20610;-72
2021/11/15 06:19:05;;;;;;;55.03;28.83;;;;;;;;;;5012621;28;20267;-71
2021/11/15 06:21:36;;;;;;;55.60;30.27;;;;;;;;;;4994625;28;20220;-71
2021/11/15 06:24:04;;;;;;;58.50;30.67;;;;;;;;;;5013283;28;20216;-72
2021/11/15 06:26:30;;;;;;;52.80;29.33;;;;;;;;;;5040843;28;20232;-72
2021/11/15 06:28:58;;;;;;;53.37;28.70;;;;;;;;;;5032258;28;20244;-72
2021/11/15 06:31:24;;;;;;;51.87;28.80;;;;;;;;;;5045651;28;20220;-72
2021/11/15 06:33:50;;;;;;;50.00;28.07;;;;;;;;;;5026858;28;20717;-73
2021/11/15 06:36:24;;;;;;;45.33;26.87;;;;;;;;;;5012135;28;20212;-72
2021/11/15 06:38:53;;;;;;;50.87;27.50;;;;;;;;;;5015291;28;20234;-71
2021/11/15 06:41:20;;;;;;;48.50;27.70;;;;;;;;;;5016910;28;20224;-74
2021/11/15 06:43:46;;;;;;;45.90;26.93;;;;;;;;;;4999757;28;20228;-73
2021/11/15 06:46:18;;;;;;;50.30;27.57;;;;;;;;;;5032179;28;20275;-72
2021/11/15 06:48:44;;;;;;;43.10;26.07;;;;;;;;;;4994669;28;20228;-72
2021/11/15 06:51:10;;;;;;;46.43;26.90;;;;;;;;;;5028572;28;20277;-72
2021/11/15 06:53:36;;;;;;;43.37;25.70;;;;;;;;;;5034183;28;20231;-72
2021/11/15 06:56:03;;;;;;;43.93;26.77;;;;;;;;;;5010895;28;20279;-73
2021/11/15 06:58:30;;;;;;;46.53;26.27;;;;;;;;;;4996938;28;20239;-74
2021/11/15 07:00:55;;;;;;;47.17;25.90;;;;;;;;;;4980118;28;20239;-72
2021/11/15 07:03:21;;;;;;;46.13;27.13;;;;;;;;;;5013562;28;20730;-73
2021/11/15 07:05:48;;;;;;;44.37;26.60;;;;;;;;;;4997165;28;20219;-74
2021/11/15 07:08:16;;;;;;;44.43;26.17;;;;;;;;;;5011625;28;20709;-74
2021/11/15 07:10:42;;;;;;;40.37;25.40;;;;;;;;;;5033008;28;20281;-73
2021/11/15 07:13:07;;;;;;;42.43;25.87;;;;;;;;;;5015553;28;20216;-72
2021/11/15 07:15:36;;;;;;;40.67;25.87;;;;;;;;;;5015832;28;20232;-72
2021/11/15 07:18:01;;;;;;;50.33;27.90;;;;;;;;;;5032145;28;20243;-73
2021/11/15 07:20:29;;;;;;;44.27;26.77;;;;;;;;;;5032482;28;20219;-72
2021/11/15 07:22:57;;;;;;;45.63;26.90;;;;;;;;;;4995561;28;20658;-73
2021/11/15 07:25:25;;;;;;;45.70;27.00;;;;;;;;;;4995348;28;20213;-73
2021/11/15 07:27:52;;;;;;;43.97;26.93;;;;;;;;;;5028078;28;20616;-72
2021/11/15 07:30:18;;;;;;;45.93;26.47;;;;;;;;;;5031707;28;20755;-73
2021/11/15 07:32:43;;;;;;;45.83;26.57;;;;;;;;;;5011695;28;20244;-73
2021/11/15 07:35:09;;;;;;;45.73;26.53;;;;;;;;;;4995111;28;20631;-73
2021/11/15 07:37:37;;;;;;;46.63;26.90;;;;;;;;;;5016266;28;20737;-73
2021/11/15 07:40:06;;;;;;;42.43;26.30;;;;;;;;;;5031077;28;20223;-73
2021/11/15 07:42:34;;;;;;;46.80;26.73;;;;;;;;;;5032187;28;20223;-72
2021/11/15 07:45:00;;;;;;;45.50;26.77;;;;;;;;;;5047804;28;20752;-73
2021/11/15 07:47:31;;;;;;;45.37;26.20;;;;;;;;;;5015102;28;20212;-72
2021/11/15 07:49:59;;;;;;;45.83;26.27;;;;;;;;;;5016111;28;20223;-72
2021/11/15 07:52:27;;;;;;;44.50;26.30;;;;;;;;;;5047316;28;20212;-72
2021/11/15 07:54:55;;;;;;;43.33;26.67;;;;;;;;;;5014749;28;20597;-72
2021/11/15 07:57:20;;;;;;;49.43;26.93;;;;;;;;;;5031515;28;20711;-73
2021/11/15 07:59:46;;;;;;;50.33;26.60;;;;;;;;;;5014951;28;20227;-73
2021/11/15 08:02:14;;;;;;;50.03;27.43;;;;;;;;;;4995480;28;20212;-73
2021/11/15 08:04:42;;;;;;;51.60;27.53;;;;;;;;;;5011825;28;20723;-72
2021/11/15 08:07:12;;;;;;;49.30;27.10;;;;;;;;;;5018382;28;20277;-73
2021/11/15 08:09:41;;;;;;;45.83;26.83;;;;;;;;;;5015728;28;20227;-72
2021/11/15 08:12:08;;;;;;;50.57;27.07;;;;;;;;;;5030569;28;20303;-72
2021/11/15 08:14:41;;;;;;;49.70;27.47;;;;;;;;;;5011108;28;20221;-74
2021/11/15 08:17:07;;;;;;;51.33;28.00;;;;;;;;;;4999521;28;20212;-72
2021/11/15 08:19:32;;;;;;;52.40;28.43;;;;;;;;;;5015125;28;20235;-72
2021/11/15 08:21:58;;;;;;;50.33;26.57;;;;;;;;;;5014737;28;20698;-73
2021/11/15 08:24:51;;;;;;;53.10;28.33;;;;;;;;;;5014097;28;20223;-72
2021/11/15 08:27:21;;;;;;;49.13;27.63;;;;;;;;;;5032256;28;20273;-73
2021/11/15 08:29:49;;;;;;;51.80;27.63;;;;;;;;;;4990693;28;20228;-73
2021/11/15 08:32:15;;;;;;;52.03;27.30;;;;;;;;;;5013245;28;20223;-72
2021/11/15 08:34:41;;;;;;;46.90;27.40;;;;;;;;;;5011483;28;20609;-74
2021/11/15 08:37:08;;;;;;;51.40;26.93;;;;;;;;;;5028808;28;20204;-73
2021/11/15 08:39:36;;;;;;;47.50;27.70;;;;;;;;;;5014490;28;20216;-73
2021/11/15 08:42:06;;;;;;;47.67;26.67;;;;;;;;;;5013941;28;20220;-73
2021/11/15 08:44:38;;;;;;;47.67;27.40;;;;;;;;;;5030735;28;20228;-73
2021/11/15 08:47:08;;;;;;;45.03;25.77;;;;;;;;;;5029077;28;20265;-72
2021/11/15 08:49:34;;;;;;;43.67;25.30;;;;;;;;;;5032692;28;20269;-73
2021/11/15 08:52:00;;;;;;;45.90;25.07;;;;;;;;;;4998161;28;20599;-72
2021/11/15 08:54:28;;;;;;;46.23;25.40;;;;;;;;;;5028826;28;20657;-74
2021/11/15 08:56:58;;;;;;;44.63;24.87;;;;;;;;;;5008554;28;20219;-72
2021/11/15 08:59:24;;;;;;;43.77;25.23;;;;;;;;;;5012291;28;20248;-72
2021/11/15 09:01:50;;;;;;;44.77;24.90;;;;;;;;;;5025783;28;20322;-72
2021/11/15 09:04:17;;;;;;;43.50;24.53;;;;;;;;;;5038884;28;20701;-72
2021/11/15 09:06:45;;;;;;;46.17;25.03;;;;;;;;;;4998268;28;20227;-72
2021/11/15 09:09:17;;;;;;;43.37;24.33;;;;;;;;;;5030136;28;20270;-73
2021/11/15 09:11:49;;;;;;;42.63;25.43;;;;;;;;;;5000169;28;20580;-72
2021/11/15 09:14:15;;;;;;;45.90;25.53;;;;;;;;;;5029408;28;20226;-72
2021/11/15 09:16:42;;;;;;;41.20;24.60;;;;;;;;;;5013222;28;20236;-75
2021/11/15 09:19:13;;;;;;;42.60;24.73;;;;;;;;;;5029544;28;20235;-72
2021/11/15 09:21:41;;;;;;;44.03;24.77;;;;;;;;;;5030609;28;20642;-72
2021/11/15 09:24:07;;;;;;;42.90;23.83;;;;;;;;;;5029655;28;20228;-73
2021/11/15 09:26:35;;;;;;;44.77;24.87;;;;;;;;;;5014495;28;20255;-73
2021/11/15 09:29:04;;;;;;;41.27;22.17;;;;;;;;;;5014618;28;20287;-72
2021/11/15 09:31:32;;;;;;;39.37;23.53;;;;;;;;;;5016411;28;20605;-72
2021/11/15 09:34:00;;;;;;;37.30;22.67;;;;;;;;;;5014271;28;20223;-72
2021/11/15 09:36:25;;;;;;;39.73;23.43;;;;;;;;;;5014582;28;20700;-73
2021/11/15 09:38:52;;;;;;;39.53;23.23;;;;;;;;;;5031781;28;20232;-71
2021/11/15 09:41:17;;;;;;;37.87;22.80;;;;;;;;;;5011379;28;20632;-72
2021/11/15 09:43:43;;;;;;;37.00;22.20;;;;;;;;;;5011626;28;20306;-73
2021/11/15 09:46:20;;;;;;;39.90;22.23;;;;;;;;;;4997395;28;20565;-72
2021/11/15 09:48:52;;;;;;;41.47;23.13;;;;;;;;;;5029639;28;20207;-72
2021/11/15 09:51:18;;;;;;;38.00;22.67;;;;;;;;;;4996955;28;20693;-72
2021/11/15 09:53:46;;;;;;;39.07;23.30;;;;;;;;;;4996834;28;20278;-72
2021/11/15 09:56:14;;;;;;;39.70;23.20;;;;;;;;;;5012103;28;20227;-73
2021/11/15 09:58:40;;;;;;;39.00;22.33;;;;;;;;;;4993903;28;20665;-72
2021/11/15 10:01:05;;;;;;;35.93;22.30;;;;;;;;;;5009335;28;20224;-73
2021/11/15 10:03:36;;;;;;;35.60;22.23;;;;;;;;;;4996018;28;20217;-72
2021/11/15 10:06:02;;;;;;;36.93;23.43;;;;;;;;;;5013336;28;20227;-73
2021/11/15 10:08:44;;;;;;;41.67;22.93;;;;;;;;;;5029243;28;20612;-72
2021/11/15 10:11:10;;;;;;;36.80;23.07;;;;;;;;;;5009900;28;20238;-73
2021/11/15 10:13:42;;;;;;;38.50;23.70;;;;;;;;;;5002903;28;20256;-73
2021/11/15 10:16:18;;;;;;;38.17;23.60;;;;;;;;;;4996792;28;20231;-72
2021/11/15 10:19:00;;;;;;;35.80;22.17;;;;;;;;;;5030585;28;20228;-72
2021/11/15 10:21:29;;;;;;;37.93;23.33;;;;;;;;;;5012535;28;20227;-72
2021/11/15 10:24:01;;;;;;;37.93;22.53;;;;;;;;;;5012685;28;20254;-72
2021/11/15 10:26:45;;;;;;;37.07;22.50;;;;;;;;;;5028296;28;20220;-72
2021/11/15 10:29:20;;;;;;;37.97;22.43;;;;;;;;;;5028575;28;20215;-73
2021/11/15 10:31:50;;;;;;;36.83;22.03;;;;;;;;;;5013243;28;20251;-73
2021/11/15 10:34:26;;;;;;;39.17;22.07;;;;;;;;;;5011909;28;20306;-72
2021/11/15 10:36:57;;;;;;;37.33;21.80;;;;;;;;;;5013300;28;20266;-71
2021/11/15 10:39:26;;;;;;;34.90;21.50;;;;;;;;;;5013191;28;20307;-73
2021/11/15 10:41:56;;;;;;;35.87;20.53;;;;;;;;;;5029027;28;20239;-73
2021/11/15 10:44:22;;;;;;;33.33;21.37;;;;;;;;;;5011159;28;20299;-73
2021/11/15 10:46:50;;;;;;;31.30;20.53;;;;;;;;;;4996281;28;20574;-73
2021/11/15 10:49:19;;;;;;;34.07;20.63;;;;;;;;;;5011977;28;20228;-74
2021/11/15 10:51:56;;;;;;;33.27;20.27;;;;;;;;;;5012916;28;20224;-73
2021/11/15 10:54:43;;;;;;;31.60;19.57;;;;;;;;;;5029208;28;20686;-74
2021/11/15 10:57:25;;;;;;;34.03;20.70;;;;;;;;;;4982938;28;20605;-73
2021/11/15 11:00:19;;;;;;;33.23;20.93;;;;;;;;;;5028494;28;20235;-73
2021/11/15 11:02:50;;;;;;;34.20;20.67;;;;;;;;;;5013880;28;20592;-74
2021/11/15 11:05:18;;;;;;;33.80;20.10;;;;;;;;;;5000070;28;20236;-72
2021/11/15 11:07:46;;;;;;;32.73;19.63;;;;;;;;;;5028889;28;20217;-73
2021/11/15 11:10:16;;;;;;;34.07;21.20;;;;;;;;;;5026890;28;20728;-72
2021/11/15 11:12:57;;;;;;;33.30;19.93;;;;;;;;;;5016621;28;20232;-73
2021/11/15 11:15:48;;;;;;;35.00;19.53;;;;;;;;;;5015787;28;20247;-72
2021/11/15 11:18:18;;;;;;;31.40;19.80;;;;;;;;;;5034600;28;20274;-73
2021/11/15 11:23:58;;;;;;;31.67;20.10;;;;;;;;;;4999566;28;20773;-73
2021/11/15 11:26:30;;;;;;;29.87;18.97;;;;;;;;;;5017813;28;20223;-73
2021/11/15 11:28:58;;;;;;;27.17;18.73;;;;;;;;;;5032020;28;20247;-73
2021/11/15 11:31:26;;;;;;;29.63;19.23;;;;;;;;;;5015606;28;20226;-72
2021/11/15 11:33:54;;;;;;;29.70;18.87;;;;;;;;;;5015222;28;20362;-73
2021/11/15 11:36:20;;;;;;;32.50;19.10;;;;;;;;;;5031450;28;20223;-71
2021/11/15 11:38:48;;;;;;;28.57;18.80;;;;;;;;;;5048767;28;20614;-71
2021/11/15 11:41:16;;;;;;;30.63;18.50;;;;;;;;;;5030838;28;20223;-72
2021/11/15 11:43:42;;;;;;;30.93;19.43;;;;;;;;;;5030832;28;20243;-72
2021/11/15 11:46:10;;;;;;;30.77;18.67;;;;;;;;;;5060168;28;20220;-72
2021/11/15 11:48:35;;;;;;;32.13;19.83;;;;;;;;;;5042886;28;20216;-72
2021/11/15 11:51:01;;;;;;;31.37;19.87;;;;;;;;;;5033780;28;20224;-73
2021/11/15 11:53:33;;;;;;;29.47;19.20;;;;;;;;;;5015223;28;20258;-72
2021/11/15 11:56:13;;;;;;;29.83;19.80;;;;;;;;;;5018102;28;20212;-73
2021/11/15 11:58:40;;;;;;;31.73;19.27;;;;;;;;;;5015330;28;20223;-72
2021/11/15 12:01:24;;;;;;;30.77;19.93;;;;;;;;;;5031078;28;20227;-72
2021/11/15 12:04:13;;;;;;;32.70;19.50;;;;;;;;;;5031560;28;20635;-73
2021/11/15 12:06:40;;;;;;;30.90;19.73;;;;;;;;;;5031504;28;20236;-72
2021/11/15 12:09:05;;;;;;;28.17;19.33;;;;;;;;;;5032574;28;20219;-72
2021/11/15 12:11:32;;;;;;;32.67;20.20;;;;;;;;;;5032257;28;20220;-72
2021/11/15 12:13:58;;;;;;;35.40;20.83;;;;;;;;;;5033318;28;20770;-73
2021/11/15 12:16:52;;;;;;;31.87;20.63;;;;;;;;;;5033036;28;20220;-73
2021/11/15 12:19:22;;;;;;;33.43;21.80;;;;;;;;;;5030862;28;20290;-72
2021/11/15 12:21:47;;;;;;;33.40;20.83;;;;;;;;;;5014363;28;20591;-72
2021/11/15 12:24:17;;;;;;;32.10;20.50;;;;;;;;;;5030283;28;20220;-72
2021/11/15 12:26:47;;;;;;;32.20;21.10;;;;;;;;;;5000761;28;20606;-73
2021/11/15 12:29:38;;;;;;;33.03;21.27;;;;;;;;;;4995638;28;20259;-73
2021/11/15 12:32:08;;;;;;;32.53;21.27;;;;;;;;;;4978649;28;20224;-73
2021/11/15 12:34:55;;;;;;;31.77;20.90;;;;;;;;;;5010702;28;20221;-71
2021/11/15 12:37:33;;;;;;;33.90;21.40;;;;;;;;;;5017105;28;20240;-73
2021/11/15 12:39:58;;;;;;;32.50;20.63;;;;;;;;;;5011373;28;20690;-72
2021/11/15 12:42:28;;;;;;;33.63;21.97;;;;;;;;;;5020082;28;20231;-72
2021/11/15 12:45:22;;;;;;;32.07;21.63;;;;;;;;;;5016001;28;20216;-73
2021/11/15 12:47:50;;;;;;;29.23;20.50;;;;;;;;;;5020069;28;20682;-72
2021/11/15 12:50:23;;;;;;;36.17;21.80;;;;;;;;;;5013507;28;20228;-73
2021/11/15 12:52:56;;;;;;;31.67;21.23;;;;;;;;;;5014371;28;20270;-73
2021/11/15 12:55:23;;;;;;;32.53;20.73;;;;;;;;;;4996956;28;20250;-72
2021/11/15 12:57:50;;;;;;;30.80;21.50;;;;;;;;;;5030829;28;20251;-74
2021/11/15 13:00:18;;;;;;;33.20;21.20;;;;;;;;;;5031067;28;20282;-72
2021/11/15 13:02:51;;;;;;;31.33;21.53;;;;;;;;;;5014169;28;20227;-73
2021/11/15 13:05:19;;;;;;;33.60;22.20;;;;;;;;;;5012937;28;20227;-71
2021/11/15 13:07:48;;;;;;;31.00;21.87;;;;;;;;;;5030331;28;20216;-72
2021/11/15 13:10:18;;;;;;;32.00;21.30;;;;;;;;;;5013066;28;20235;-71
2021/11/15 13:12:44;;;;;;;31.30;21.17;;;;;;;;;;5029445;28;20243;-72
2021/11/15 13:15:17;;;;;;;32.27;21.50;;;;;;;;;;5028849;28;20243;-72
2021/11/15 13:17:48;;;;;;;31.57;21.70;;;;;;;;;;5014176;28;20259;-72
2021/11/15 13:20:16;;;;;;;32.77;20.67;;;;;;;;;;5030880;28;20216;-73
2021/11/15 13:22:43;;;;;;;33.37;21.40;;;;;;;;;;5025254;28;20216;-72
2021/11/15 13:25:09;;;;;;;33.97;21.67;;;;;;;;;;5029637;28;20222;-73
2021/11/15 13:27:35;;;;;;;35.27;22.30;;;;;;;;;;5030865;28;20219;-73
2021/11/15 13:30:03;;;;;;;32.73;21.10;;;;;;;;;;5029285;28;20239;-73
2021/11/15 13:32:32;;;;;;;35.87;22.90;;;;;;;;;;5030475;28;20231;-72
2021/11/15 13:35:00;;;;;;;33.57;21.83;;;;;;;;;;5029032;28;20216;-73
2021/11/15 13:37:26;;;;;;;31.83;21.63;;;;;;;;;;5014423;28;20286;-71
2021/11/15 13:39:52;;;;;;;32.70;21.33;;;;;;;;;;5029811;28;20224;-72
2021/11/15 13:42:18;;;;;;;33.57;21.83;;;;;;;;;;5010803;28;20242;-73
2021/11/15 13:44:46;;;;;;;33.80;21.90;;;;;;;;;;5030499;28;20286;-72
2021/11/15 13:47:16;;;;;;;32.67;20.97;;;;;;;;;;5029091;28;20216;-72
2021/11/15 13:49:45;;;;;;;33.77;22.50;;;;;;;;;;5013028;28;20695;-73
2021/11/15 13:52:15;;;;;;;32.53;21.83;;;;;;;;;;5029230;28;20265;-73
2021/11/15 13:54:42;;;;;;;32.27;21.20;;;;;;;;;;5013338;28;20745;-72
2021/11/15 13:57:08;;;;;;;34.67;21.83;;;;;;;;;;5011872;28;20261;-72
2021/11/15 13:59:41;;;;;;;32.03;21.07;;;;;;;;;;4991961;28;20228;-72
2021/11/15 14:02:07;;;;;;;31.40;21.33;;;;;;;;;;5011847;28;20240;-71
2021/11/15 14:04:35;;;;;;;35.57;22.30;;;;;;;;;;5021871;28;20240;-72
2021/11/15 14:07:03;;;;;;;34.13;21.37;;;;;;;;;;5018230;28;20548;-72
2021/11/15 14:09:31;;;;;;;32.30;21.27;;;;;;;;;;5018843;28;20250;-72
2021/11/15 14:11:57;;;;;;;38.13;24.37;;;;;;;;;;4996622;28;20220;-73
2021/11/15 14:14:27;;;;;;;36.20;24.00;;;;;;;;;;4998380;28;20322;-75
2021/11/15 14:16:54;;;;;;;34.67;22.10;;;;;;;;;;4993529;28;20233;-73
2021/11/15 14:19:21;;;;;;;32.77;22.37;;;;;;;;;;5009924;28;20232;-73
2021/11/15 14:21:47;;;;;;;31.40;21.03;;;;;;;;;;5013868;28;20235;-73
2021/11/15 14:24:12;;;;;;;30.47;21.67;;;;;;;;;;5031027;28;20741;-72
2021/11/15 14:26:38;;;;;;;33.20;21.30;;;;;;;;;;5012752;28;20734;-74
2021/11/15 14:29:04;;;;;;;33.27;22.07;;;;;;;;;;5021544;28;20705;-74